createdAt,value
2023-03-17T00:01:10.796Z,8.00
2023-03-17T00:03:42.604Z,8.00
2023-03-17T00:06:22.763Z,7.90
2023-03-17T00:08:49.488Z,7.90
2023-03-17T00:11:23.785Z,7.90
2023-03-17T00:13:51.474Z,7.90
2023-03-17T00:16:29.853Z,7.90
2023-03-17T00:18:57.640Z,7.80
2023-03-17T00:21:36.808Z,7.80
2023-03-17T00:24:09.816Z,7.80
2023-03-17T00:26:43.851Z,7.80
2023-03-17T00:29:11.017Z,7.80
2023-03-17T00:31:52.154Z,7.80
2023-03-17T00:34:19.510Z,7.80
2023-03-17T00:36:56.773Z,7.80
2023-03-17T00:39:25.511Z,7.80
2023-03-17T00:41:58.840Z,7.70
2023-03-17T00:44:25.683Z,7.70
2023-03-17T00:47:00.975Z,7.70
2023-03-17T00:49:28.304Z,7.60
2023-03-17T00:52:01.856Z,7.60
2023-03-17T00:54:28.675Z,7.60
2023-03-17T00:57:01.844Z,7.50
2023-03-17T00:59:33.579Z,7.50
2023-03-17T01:02:06.851Z,7.40
2023-03-17T01:04:42.776Z,7.50
2023-03-17T01:07:18.839Z,7.50
2023-03-17T01:09:47.872Z,7.50
2023-03-17T01:12:21.874Z,7.50
2023-03-17T01:14:49.219Z,7.50
2023-03-17T01:17:24.845Z,7.50
2023-03-17T01:19:52.469Z,7.60
2023-03-17T01:22:25.862Z,7.60
2023-03-17T01:24:55.207Z,7.60
2023-03-17T01:27:28.889Z,7.60
2023-03-17T01:30:01.883Z,7.60
2023-03-17T01:32:35.007Z,7.60
2023-03-17T01:35:08.040Z,7.60
2023-03-17T01:37:34.879Z,7.60
2023-03-17T01:40:07.883Z,7.50
2023-03-17T01:42:34.900Z,7.50
2023-03-17T01:45:13.963Z,7.50
2023-03-17T01:47:42.084Z,7.40
2023-03-17T01:50:16.923Z,7.40
2023-03-17T01:52:45.639Z,7.40
2023-03-17T01:55:24.089Z,7.40
2023-03-17T01:57:54.287Z,7.40
2023-03-17T02:00:31.299Z,7.40
2023-03-17T02:03:12.937Z,7.40
2023-03-17T02:05:46.963Z,7.30
2023-03-17T02:08:22.957Z,7.30
2023-03-17T02:10:50.620Z,7.30
2023-03-17T02:13:23.943Z,7.30
2023-03-17T02:15:58.964Z,7.30
2023-03-17T02:18:33.966Z,7.30
2023-03-17T02:21:42.933Z,7.30
2023-03-17T02:24:46.049Z,7.30
2023-03-17T02:27:21.296Z,7.30
2023-03-17T02:29:55.048Z,7.30
2023-03-17T02:32:22.097Z,7.30
2023-03-17T02:34:55.973Z,7.30
2023-03-17T02:37:23.674Z,7.30
2023-03-17T02:39:56.979Z,7.30
2023-03-17T02:42:30.058Z,7.30
2023-03-17T02:44:57.478Z,7.40
2023-03-17T02:47:50.015Z,7.40
2023-03-17T02:50:34.035Z,7.30
2023-03-17T02:53:08.068Z,7.30
2023-03-17T02:55:35.198Z,7.40
2023-03-17T02:58:10.053Z,7.40
2023-03-17T03:00:37.788Z,7.30
2023-03-17T03:03:12.040Z,7.40
2023-03-17T03:05:46.032Z,7.40
2023-03-17T03:08:19.049Z,7.40
2023-03-17T03:10:45.872Z,7.40
2023-03-17T03:13:26.077Z,7.40
2023-03-17T03:15:59.146Z,7.40
2023-03-17T03:18:26.139Z,7.40
2023-03-17T03:20:59.043Z,7.40
2023-03-17T03:23:33.088Z,7.40
2023-03-17T03:26:06.063Z,7.40
2023-03-17T03:28:39.108Z,7.40
2023-03-17T03:31:16.257Z,7.40
2023-03-17T03:33:51.108Z,7.40
2023-03-17T03:36:25.144Z,7.40
2023-03-17T03:38:58.109Z,7.40
2023-03-17T03:41:24.919Z,7.40
2023-03-17T03:43:59.288Z,7.40
2023-03-17T03:46:33.163Z,7.40
2023-03-17T03:49:00.103Z,7.50
2023-03-17T03:51:33.108Z,7.50
2023-03-17T03:54:01.244Z,7.50
2023-03-17T03:56:34.149Z,7.50
2023-03-17T03:59:08.194Z,7.50
2023-03-17T04:01:41.190Z,7.50
2023-03-17T04:04:08.063Z,7.50
2023-03-17T04:06:41.132Z,7.50
2023-03-17T04:09:16.153Z,7.50
2023-03-17T04:11:43.091Z,7.50
2023-03-17T04:14:16.147Z,7.50
2023-03-17T04:16:49.196Z,7.50
2023-03-17T04:19:16.362Z,7.50
2023-03-17T04:21:43.307Z,7.60
2023-03-17T04:24:16.176Z,7.60
2023-03-17T04:26:50.172Z,7.60
2023-03-17T04:29:16.970Z,7.60
2023-03-17T04:31:43.920Z,7.60
2023-03-17T04:34:23.230Z,7.70
2023-03-17T04:36:50.191Z,7.70
2023-03-17T04:39:25.179Z,7.70
2023-03-17T04:41:52.060Z,7.70
2023-03-17T04:44:25.252Z,7.70
2023-03-17T04:46:52.695Z,7.70
2023-03-17T04:49:26.211Z,7.70
2023-03-17T04:52:00.208Z,7.70
2023-03-17T04:54:33.250Z,7.70
2023-03-17T04:57:07.219Z,7.70
2023-03-17T04:59:40.221Z,7.70
2023-03-17T05:02:14.295Z,7.70
2023-03-17T05:04:48.245Z,7.70
2023-03-17T05:07:21.910Z,7.70
2023-03-17T05:09:55.254Z,7.70
2023-03-17T05:12:24.639Z,7.70
2023-03-17T05:14:58.284Z,7.80
2023-03-17T05:17:25.185Z,7.80
2023-03-17T05:19:58.279Z,7.80
2023-03-17T05:22:25.056Z,7.80
2023-03-17T05:24:58.264Z,7.80
2023-03-17T05:27:25.725Z,7.80
2023-03-17T05:29:52.646Z,7.80
2023-03-17T05:32:32.323Z,7.80
2023-03-17T05:35:05.270Z,7.80
2023-03-17T05:37:32.212Z,7.80
2023-03-17T05:40:06.262Z,7.80
2023-03-17T05:42:33.049Z,7.80
2023-03-17T05:45:06.312Z,7.70
2023-03-17T05:47:40.289Z,7.70
2023-03-17T05:50:14.294Z,7.60
2023-03-17T05:52:41.395Z,7.50
2023-03-17T05:55:15.331Z,7.50
2023-03-17T05:57:42.309Z,7.50
2023-03-17T06:00:16.329Z,7.50
2023-03-17T06:02:49.338Z,7.50
2023-03-17T06:05:22.347Z,7.50
2023-03-17T06:07:57.317Z,7.50
2023-03-17T06:10:31.740Z,7.50
2023-03-17T06:12:59.303Z,7.60
2023-03-17T06:15:32.761Z,7.60
2023-03-17T06:17:59.692Z,7.60
2023-03-17T06:20:33.376Z,7.60
2023-03-17T06:23:04.852Z,7.60
2023-03-17T06:25:42.364Z,7.60
2023-03-17T06:28:16.386Z,7.60
2023-03-17T06:30:43.253Z,7.60
2023-03-17T06:33:16.384Z,7.60
2023-03-17T06:35:43.202Z,7.60
2023-03-17T06:38:16.390Z,7.60
2023-03-17T06:40:49.385Z,7.60
2023-03-17T06:43:25.394Z,7.70
2023-03-17T06:46:05.685Z,7.70
2023-03-17T06:48:34.017Z,7.70
2023-03-17T06:51:08.386Z,7.70
2023-03-17T06:53:42.440Z,7.80
2023-03-17T06:56:23.666Z,7.80
2023-03-17T06:59:02.445Z,7.90
2023-03-17T07:01:29.201Z,8.00
2023-03-17T07:04:02.439Z,8.10
2023-03-17T07:06:35.516Z,8.20
2023-03-17T07:09:10.457Z,8.30
2023-03-17T07:11:43.499Z,8.30
2023-03-17T07:14:16.465Z,8.40
2023-03-17T07:16:43.573Z,8.40
2023-03-17T07:19:16.477Z,8.50
2023-03-17T07:21:54.479Z,8.50
2023-03-17T07:24:21.600Z,8.60
2023-03-17T07:26:55.460Z,8.60
2023-03-17T07:29:22.736Z,8.70
2023-03-17T07:31:57.475Z,8.70
2023-03-17T07:34:24.853Z,8.70
2023-03-17T07:36:52.253Z,8.70
2023-03-17T07:39:25.494Z,8.80
2023-03-17T07:42:01.485Z,8.80
2023-03-17T07:44:28.834Z,8.90
2023-03-17T07:47:03.516Z,8.90
2023-03-17T07:49:40.849Z,9.00
2023-03-17T07:52:16.527Z,9.00
2023-03-17T07:54:43.405Z,9.10
2023-03-17T07:57:17.537Z,9.10
2023-03-17T07:59:44.566Z,9.20
2023-03-17T08:02:22.672Z,9.30
2023-03-17T08:04:56.631Z,9.40
2023-03-17T08:07:35.637Z,9.40
2023-03-17T08:10:09.558Z,9.40
2023-03-17T08:12:36.621Z,9.50
2023-03-17T08:15:10.576Z,9.60
2023-03-17T08:17:44.588Z,9.60
2023-03-17T08:20:18.550Z,9.60
2023-03-17T08:22:51.607Z,9.60
2023-03-17T08:25:18.426Z,9.50
2023-03-17T08:27:51.645Z,9.50
2023-03-17T08:30:18.777Z,9.50
2023-03-17T08:32:45.621Z,9.50
2023-03-17T08:35:22.653Z,9.50
2023-03-17T08:37:56.657Z,9.50
2023-03-17T08:40:30.922Z,9.50
2023-03-17T08:42:58.180Z,9.60
2023-03-17T08:45:31.920Z,9.60
2023-03-17T08:47:58.934Z,9.70
2023-03-17T08:50:32.847Z,9.80
2023-03-17T08:52:59.809Z,9.90
2023-03-17T08:55:32.621Z,10.00
2023-03-17T08:57:59.553Z,10.10
2023-03-17T09:00:34.686Z,10.20
2023-03-17T09:03:05.775Z,10.40
2023-03-17T09:05:40.636Z,10.60
2023-03-17T09:08:18.710Z,10.70
2023-03-17T09:10:45.713Z,10.90
2023-03-17T09:13:12.610Z,10.90
2023-03-17T09:15:46.684Z,11.00
2023-03-17T09:18:14.563Z,11.10
2023-03-17T09:20:41.651Z,11.20
2023-03-17T09:23:16.678Z,11.30
2023-03-17T09:25:50.697Z,11.40
2023-03-17T09:28:23.660Z,11.60
2023-03-17T09:30:56.672Z,11.70
2023-03-17T09:33:23.521Z,11.80
2023-03-17T09:35:52.259Z,11.80
2023-03-17T09:38:28.692Z,11.90
2023-03-17T09:41:26.714Z,12.00
2023-03-17T09:44:10.678Z,12.10
2023-03-17T09:47:09.865Z,12.20
2023-03-17T09:49:56.816Z,12.30
2023-03-17T09:52:31.180Z,12.30
2023-03-17T09:55:05.706Z,12.40
2023-03-17T09:57:38.055Z,12.40
2023-03-17T10:00:12.731Z,12.40
2023-03-17T10:02:39.864Z,12.40
2023-03-17T10:05:27.840Z,12.40
2023-03-17T10:08:13.016Z,12.50
2023-03-17T10:11:03.982Z,12.70
2023-03-17T10:14:01.971Z,12.90
2023-03-17T10:16:37.819Z,13.10
2023-03-17T10:19:35.795Z,13.20
2023-03-17T10:22:22.739Z,13.50
2023-03-17T10:24:57.569Z,13.70
2023-03-17T10:27:31.756Z,13.80
2023-03-17T10:29:58.512Z,13.90
2023-03-17T10:32:27.430Z,14.00
2023-03-17T10:35:02.035Z,13.90
2023-03-17T10:37:33.603Z,13.80
2023-03-17T10:40:00.937Z,13.70
2023-03-17T10:42:39.771Z,13.70
2023-03-17T10:45:45.348Z,13.70
2023-03-17T10:48:18.900Z,13.80
2023-03-17T10:50:54.819Z,13.90
2023-03-17T10:53:29.819Z,14.00
2023-03-17T10:56:07.780Z,14.10
2023-03-17T10:58:47.616Z,14.00
2023-03-17T11:01:35.957Z,14.00
2023-03-17T11:04:30.722Z,14.00
2023-03-17T11:07:05.975Z,14.00
2023-03-17T11:09:35.767Z,14.10
2023-03-17T11:12:15.850Z,14.20
2023-03-17T11:14:50.893Z,14.30
2023-03-17T11:17:33.642Z,14.30
2023-03-17T11:20:25.808Z,14.10
2023-03-17T11:23:17.192Z,14.00
2023-03-17T11:25:53.839Z,14.00
2023-03-17T11:28:24.999Z,14.00
2023-03-17T11:31:34.920Z,14.20
2023-03-17T11:34:08.854Z,14.50
2023-03-17T11:36:54.509Z,14.70
2023-03-17T11:39:49.872Z,14.90
2023-03-17T11:42:51.873Z,15.10
2023-03-17T11:45:38.905Z,15.30
2023-03-17T11:48:31.022Z,15.50
2023-03-17T11:51:21.200Z,15.60
2023-03-17T11:54:18.153Z,15.70
2023-03-17T11:57:01.212Z,15.70
2023-03-17T11:59:59.043Z,15.60
2023-03-17T12:02:36.898Z,15.60
2023-03-17T12:05:21.898Z,15.70
2023-03-17T12:08:37.881Z,15.80
2023-03-17T12:11:10.563Z,16.10
2023-03-17T12:13:52.856Z,16.20
2023-03-17T12:16:33.195Z,16.10
2023-03-17T12:19:43.923Z,16.10
2023-03-17T12:22:22.734Z,16.10
2023-03-17T12:25:23.084Z,16.20
2023-03-17T12:28:19.226Z,16.30
2023-03-17T12:30:56.272Z,16.20
2023-03-17T12:33:44.860Z,16.10
2023-03-17T12:36:24.076Z,16.10
2023-03-17T12:39:02.090Z,16.20
2023-03-17T12:42:05.945Z,16.40
2023-03-17T12:45:00.262Z,16.50
2023-03-17T12:47:58.718Z,16.50
2023-03-17T12:50:51.130Z,16.50
2023-03-17T12:53:31.146Z,16.40
2023-03-17T12:56:15.066Z,16.30
2023-03-17T12:58:49.028Z,16.20
2023-03-17T13:01:44.068Z,16.20
2023-03-17T13:04:32.402Z,16.20
2023-03-17T13:07:40.955Z,16.10
2023-03-17T13:10:42.016Z,16.10
2023-03-17T13:13:38.033Z,16.00
2023-03-17T13:16:33.817Z,16.00
2023-03-17T13:19:26.981Z,16.00
2023-03-17T13:22:05.733Z,16.10
2023-03-17T13:24:55.021Z,16.40
2023-03-17T13:27:40.049Z,16.70
2023-03-17T13:30:33.304Z,16.70
2023-03-17T13:33:25.852Z,16.70
2023-03-17T13:36:28.999Z,16.80
2023-03-17T13:39:18.828Z,16.90
2023-03-17T13:42:28.451Z,17.00
2023-03-17T13:45:18.174Z,17.00
2023-03-17T13:47:59.198Z,16.80
2023-03-17T13:50:32.549Z,16.70
2023-03-17T13:53:17.176Z,16.60
2023-03-17T13:56:08.417Z,16.50
2023-03-17T13:59:12.012Z,16.40
2023-03-17T14:01:46.988Z,16.30
2023-03-17T14:04:28.161Z,16.40
2023-03-17T14:07:09.316Z,16.40
2023-03-17T14:09:50.090Z,16.40
2023-03-17T14:12:29.560Z,16.50
2023-03-17T14:15:11.093Z,16.70
2023-03-17T14:17:53.978Z,16.70
2023-03-17T14:20:31.123Z,16.70
2023-03-17T14:23:02.774Z,16.80
2023-03-17T14:25:42.078Z,16.80
2023-03-17T14:28:16.589Z,17.00
2023-03-17T14:30:59.113Z,17.00
2023-03-17T14:33:32.021Z,17.10
2023-03-17T14:36:08.203Z,17.20
2023-03-17T14:38:46.595Z,17.20
2023-03-17T14:41:23.141Z,17.20
2023-03-17T14:43:59.140Z,17.30
2023-03-17T14:46:44.151Z,17.40
2023-03-17T14:49:18.755Z,17.40
2023-03-17T14:51:55.208Z,17.50
2023-03-17T14:54:29.899Z,17.60
2023-03-17T14:57:11.139Z,17.50
2023-03-17T14:59:40.657Z,17.40
2023-03-17T15:02:42.169Z,17.30
2023-03-17T15:05:37.090Z,17.30
2023-03-17T15:08:42.358Z,17.10
2023-03-17T15:11:16.992Z,17.10
2023-03-17T15:13:50.169Z,17.00
2023-03-17T15:16:38.512Z,16.90
2023-03-17T15:19:35.237Z,16.90
2023-03-17T15:22:32.218Z,17.00
2023-03-17T15:25:24.382Z,17.00
2023-03-17T15:27:58.223Z,16.90
2023-03-17T15:30:29.501Z,16.90
2023-03-17T15:33:08.266Z,16.90
2023-03-17T15:35:35.123Z,16.90
2023-03-17T15:38:08.238Z,16.90
2023-03-17T15:40:34.984Z,16.80
2023-03-17T15:43:08.234Z,16.70
2023-03-17T15:45:35.018Z,16.70
2023-03-17T15:48:08.242Z,16.60
2023-03-17T15:50:42.253Z,16.40
2023-03-17T15:53:13.798Z,16.40
2023-03-17T15:55:47.268Z,16.30
2023-03-17T15:58:14.607Z,16.20
2023-03-17T16:00:48.259Z,16.30
2023-03-17T16:03:42.279Z,16.20
2023-03-17T16:06:23.248Z,16.20
2023-03-17T16:08:50.701Z,16.10
2023-03-17T16:11:34.251Z,16.10
2023-03-17T16:14:14.526Z,16.00
2023-03-17T16:16:52.899Z,16.00
2023-03-17T16:19:22.841Z,15.90
2023-03-17T16:21:56.316Z,15.90
2023-03-17T16:24:25.863Z,15.90
2023-03-17T16:26:59.325Z,15.80
2023-03-17T16:29:27.927Z,15.80
2023-03-17T16:32:01.367Z,15.80
2023-03-17T16:34:28.267Z,15.80
2023-03-17T16:37:03.384Z,15.80
2023-03-17T16:39:36.286Z,15.80
2023-03-17T16:42:04.352Z,15.70
2023-03-17T16:44:38.416Z,15.70
2023-03-17T16:47:05.506Z,15.60
2023-03-17T16:49:42.400Z,15.60
2023-03-17T16:52:14.133Z,15.50
2023-03-17T16:54:47.344Z,15.50
2023-03-17T16:57:16.360Z,15.40
2023-03-17T16:59:49.324Z,15.40
2023-03-17T17:02:29.419Z,15.30
2023-03-17T17:05:02.330Z,15.20
2023-03-17T17:07:29.320Z,15.20
2023-03-17T17:10:02.377Z,15.20
2023-03-17T17:12:29.169Z,15.10
2023-03-17T17:15:02.401Z,15.10
2023-03-17T17:17:29.887Z,15.10
2023-03-17T17:20:03.363Z,15.00
2023-03-17T17:22:30.219Z,15.00
2023-03-17T17:25:03.422Z,14.90
2023-03-17T17:27:30.250Z,14.90
2023-03-17T17:30:03.429Z,14.80
2023-03-17T17:32:36.442Z,14.80
2023-03-17T17:35:03.822Z,14.70
2023-03-17T17:37:37.422Z,14.70
2023-03-17T17:40:12.466Z,14.60
2023-03-17T17:42:46.475Z,14.60
2023-03-17T17:45:15.668Z,14.60
2023-03-17T17:47:49.482Z,14.50
2023-03-17T17:50:25.618Z,14.50
2023-03-17T17:52:59.408Z,14.50
2023-03-17T17:55:32.442Z,14.40
2023-03-17T17:58:05.521Z,14.40
2023-03-17T18:00:39.438Z,14.40
2023-03-17T18:03:12.447Z,14.30
2023-03-17T18:05:40.723Z,14.30
2023-03-17T18:08:08.082Z,14.20
2023-03-17T18:10:41.455Z,14.20
2023-03-17T18:13:08.612Z,14.20
2023-03-17T18:15:42.533Z,14.20
2023-03-17T18:18:19.465Z,14.20
2023-03-17T18:20:52.481Z,14.20
2023-03-17T18:23:20.313Z,14.20
2023-03-17T18:25:47.260Z,14.20
2023-03-17T18:28:20.482Z,14.20
2023-03-17T18:30:47.741Z,14.20
2023-03-17T18:33:24.559Z,14.20
2023-03-17T18:35:52.299Z,14.20
2023-03-17T18:38:19.172Z,14.20
2023-03-17T18:40:52.495Z,14.20
2023-03-17T18:43:25.505Z,14.20
2023-03-17T18:45:52.421Z,14.20
2023-03-17T18:48:25.598Z,14.20
2023-03-17T18:50:54.444Z,14.20
2023-03-17T18:53:28.559Z,14.20
2023-03-17T18:55:57.139Z,14.20
2023-03-17T18:58:30.632Z,14.10
2023-03-17T19:00:59.536Z,14.20
2023-03-17T19:03:35.834Z,14.20
2023-03-17T19:06:15.680Z,14.10
2023-03-17T19:08:50.690Z,14.10
2023-03-17T19:11:21.528Z,14.20
2023-03-17T19:13:55.637Z,14.20
2023-03-17T19:16:28.872Z,14.20
2023-03-17T19:19:03.714Z,14.20
2023-03-17T19:21:31.006Z,14.20
2023-03-17T19:24:07.764Z,14.20
2023-03-17T19:26:41.644Z,14.20
2023-03-17T19:29:16.663Z,14.10
2023-03-17T19:31:43.895Z,14.10
2023-03-17T19:34:13.044Z,14.00
2023-03-17T19:36:48.651Z,14.00
2023-03-17T19:39:23.618Z,14.00
2023-03-17T19:41:55.201Z,14.00
2023-03-17T19:44:29.633Z,14.00
2023-03-17T19:47:02.625Z,14.00
2023-03-17T19:49:29.720Z,14.00
2023-03-17T19:52:03.731Z,14.00
2023-03-17T19:54:30.794Z,13.90
2023-03-17T19:57:04.572Z,13.90
2023-03-17T19:59:31.522Z,13.90
2023-03-17T20:02:06.656Z,13.90
2023-03-17T20:04:34.199Z,13.90
2023-03-17T20:07:08.759Z,13.90
2023-03-17T20:09:45.021Z,13.80
2023-03-17T20:12:18.675Z,13.80
2023-03-17T20:14:46.093Z,13.90
2023-03-17T20:17:20.688Z,13.80
2023-03-17T20:19:47.689Z,13.80
2023-03-17T20:22:14.678Z,13.80
2023-03-17T20:24:50.755Z,13.80
2023-03-17T20:27:20.623Z,13.80
2023-03-17T20:29:54.739Z,13.80
2023-03-17T20:32:21.736Z,13.80
2023-03-17T20:34:48.933Z,13.80
2023-03-17T20:37:22.662Z,13.80
2023-03-17T20:39:55.759Z,13.80
2023-03-17T20:42:23.606Z,13.80
2023-03-17T20:44:59.757Z,13.70
2023-03-17T20:47:33.678Z,13.70
2023-03-17T20:50:07.756Z,13.70
2023-03-17T20:52:43.716Z,13.70
2023-03-17T20:55:21.688Z,13.70
2023-03-17T20:57:54.746Z,13.70
2023-03-17T21:00:22.115Z,13.60
2023-03-17T21:03:03.746Z,13.60
2023-03-17T21:05:32.386Z,13.60
2023-03-17T21:08:05.742Z,13.60
2023-03-17T21:10:38.750Z,13.60
2023-03-17T21:13:11.748Z,13.60
2023-03-17T21:15:44.698Z,13.50
2023-03-17T21:18:20.739Z,13.50
2023-03-17T21:20:48.222Z,13.50
2023-03-17T21:23:15.102Z,13.50
2023-03-17T21:25:48.827Z,13.40
2023-03-17T21:28:15.581Z,13.40
2023-03-17T21:30:43.794Z,13.40
2023-03-17T21:33:16.757Z,13.30
2023-03-17T21:35:43.734Z,13.30
2023-03-17T21:38:16.804Z,13.30
2023-03-17T21:40:43.896Z,13.30
2023-03-17T21:43:10.934Z,13.30
2023-03-17T21:45:45.812Z,13.20
2023-03-17T21:48:18.870Z,13.20
2023-03-17T21:50:48.394Z,13.20
2023-03-17T21:53:26.846Z,13.20
2023-03-17T21:55:53.966Z,13.20
2023-03-17T21:58:22.010Z,13.10
2023-03-17T22:00:56.095Z,13.10
2023-03-17T22:03:23.375Z,13.10
2023-03-17T22:05:50.772Z,13.10
2023-03-17T22:08:24.968Z,13.00
2023-03-17T22:10:52.161Z,13.00
2023-03-17T22:13:32.105Z,13.00
2023-03-17T22:15:59.545Z,12.90
2023-03-17T22:18:27.353Z,12.90
2023-03-17T22:21:01.847Z,12.90
2023-03-17T22:23:29.142Z,12.80
2023-03-17T22:26:09.064Z,12.80
2023-03-17T22:28:35.836Z,12.80
2023-03-17T22:31:06.645Z,12.80
2023-03-17T22:33:55.221Z,12.80
2023-03-17T22:36:23.560Z,12.70
2023-03-17T22:38:50.716Z,12.70
2023-03-17T22:41:28.859Z,12.60
2023-03-17T22:44:02.551Z,12.60
2023-03-17T22:46:36.144Z,12.50
2023-03-17T22:49:10.062Z,12.40
2023-03-17T22:51:49.889Z,12.40
2023-03-17T22:54:18.551Z,12.40
2023-03-17T22:56:55.874Z,12.30
2023-03-17T22:59:24.041Z,12.30
2023-03-17T23:01:56.888Z,12.30
2023-03-17T23:04:24.598Z,12.20
2023-03-17T23:06:53.439Z,12.10
2023-03-17T23:09:27.994Z,12.10
2023-03-17T23:11:54.989Z,12.00
2023-03-17T23:14:27.931Z,11.90
2023-03-17T23:16:55.368Z,11.80
2023-03-17T23:19:22.361Z,11.70
2023-03-17T23:21:56.002Z,11.70
2023-03-17T23:24:22.918Z,11.70
2023-03-17T23:26:55.955Z,11.70
2023-03-17T23:29:22.763Z,11.70
2023-03-17T23:31:49.992Z,11.70
2023-03-17T23:34:22.985Z,11.60
2023-03-17T23:36:49.786Z,11.60
2023-03-17T23:39:16.547Z,11.60
2023-03-17T23:41:49.952Z,11.50
2023-03-17T23:44:22.962Z,11.50
2023-03-17T23:46:56.930Z,11.50
2023-03-17T23:49:30.931Z,11.40
2023-03-17T23:52:10.954Z,11.40
2023-03-17T23:54:39.482Z,11.40
2023-03-17T23:57:12.956Z,11.40
2023-03-17T23:59:39.735Z,11.40
